createdAt,value
2022-10-22T00:01:58.099Z,10.90
2022-10-22T00:06:56.811Z,11.08
2022-10-22T00:11:55.477Z,11.13
2022-10-22T00:16:54.189Z,11.27
2022-10-22T00:21:53.342Z,11.17
2022-10-22T00:26:52.926Z,11.21
2022-10-22T00:31:51.849Z,11.28
2022-10-22T00:36:51.733Z,11.25
2022-10-22T00:41:52.159Z,11.07
2022-10-22T00:46:50.900Z,11.02
2022-10-22T00:51:49.685Z,10.95
2022-10-22T00:56:49.259Z,10.88
2022-10-22T01:01:47.986Z,11.01
2022-10-22T01:06:47.379Z,11.02
2022-10-22T01:12:12.376Z,11.14
2022-10-22T01:17:37.577Z,11.29
2022-10-22T01:22:45.991Z,11.13
2022-10-22T01:28:01.647Z,11.25
2022-10-22T01:33:03.635Z,11.23
2022-10-22T01:38:06.679Z,11.40
2022-10-22T01:43:06.871Z,11.34
2022-10-22T01:48:19.976Z,11.25
2022-10-22T01:53:34.507Z,11.35
2022-10-22T01:58:42.353Z,11.29
2022-10-22T02:03:51.403Z,11.19
2022-10-22T02:08:53.250Z,11.35
2022-10-22T02:13:56.739Z,11.34
2022-10-22T02:18:59.855Z,11.39
2022-10-22T02:23:58.666Z,11.38
2022-10-22T02:34:36.757Z,11.30
2022-10-22T02:40:25.504Z,11.03
2022-10-22T02:45:24.762Z,11.24
2022-10-22T02:50:23.412Z,11.27
2022-10-22T02:55:22.186Z,11.30
2022-10-22T03:00:20.956Z,11.44
2022-10-22T03:05:19.819Z,11.39
2022-10-22T03:10:18.522Z,11.36
2022-10-22T03:15:17.843Z,11.41
2022-10-22T03:20:19.297Z,11.49
2022-10-22T03:25:22.612Z,11.33
2022-10-22T03:30:21.604Z,11.41
2022-10-22T03:35:20.472Z,11.34
2022-10-22T03:40:19.643Z,11.39
2022-10-22T03:45:18.577Z,11.33
2022-10-22T03:50:17.574Z,11.46
2022-10-22T03:55:16.323Z,11.36
2022-10-22T04:00:15.254Z,11.49
2022-10-22T04:10:12.670Z,11.38
2022-10-22T04:15:11.351Z,11.35
2022-10-22T04:20:10.726Z,11.34
2022-10-22T04:25:09.831Z,11.42
2022-10-22T04:30:09.043Z,11.41
2022-10-22T04:35:08.002Z,11.44
2022-10-22T04:40:07.474Z,11.40
2022-10-22T04:45:06.533Z,11.28
2022-10-22T04:50:05.804Z,11.38
2022-10-22T04:55:05.204Z,11.48
2022-10-22T05:00:05.225Z,11.36
2022-10-22T05:05:04.533Z,11.34
2022-10-22T05:10:03.434Z,11.23
2022-10-22T05:15:02.246Z,11.30
2022-10-22T05:20:00.936Z,11.36
2022-10-22T05:24:59.693Z,11.30
2022-10-22T05:29:58.427Z,11.28
2022-10-22T05:34:57.316Z,11.41
2022-10-22T05:40:06.527Z,11.30
2022-10-22T05:45:14.973Z,11.22
2022-10-22T05:50:13.834Z,11.24
2022-10-22T05:55:12.537Z,11.41
2022-10-22T06:00:14.260Z,11.40
2022-10-22T06:05:15.211Z,11.45
2022-10-22T06:10:17.007Z,11.42
2022-10-22T06:15:18.231Z,11.34
2022-10-22T06:20:17.541Z,11.35
2022-10-22T06:25:16.323Z,11.41
2022-10-22T06:30:15.048Z,11.34
2022-10-22T06:35:13.947Z,11.45
2022-10-22T06:40:13.055Z,11.41
2022-10-22T06:45:11.803Z,11.47
2022-10-22T06:50:10.699Z,11.49
2022-10-22T06:55:10.258Z,11.53
2022-10-22T07:00:09.838Z,11.50
2022-10-22T07:05:09.120Z,12.67
2022-10-22T07:10:08.570Z,13.48
2022-10-22T07:15:07.662Z,13.60
2022-10-22T07:20:07.016Z,13.68
2022-10-22T07:25:07.288Z,13.86
2022-10-22T07:30:07.007Z,12.84
2022-10-22T07:35:06.075Z,12.10
2022-10-22T07:40:05.172Z,12.16
2022-10-22T07:45:04.246Z,11.53
2022-10-22T07:50:04.582Z,11.36
2022-10-22T07:55:04.369Z,11.28
2022-10-22T08:00:08.165Z,11.54
2022-10-22T08:05:13.536Z,11.37
2022-10-22T08:10:12.687Z,11.41
2022-10-22T08:15:11.284Z,11.67
2022-10-22T08:20:10.789Z,11.75
2022-10-22T08:25:09.776Z,11.84
2022-10-22T08:30:09.023Z,11.66
2022-10-22T08:35:07.833Z,11.92
2022-10-22T08:40:07.248Z,12.00
2022-10-22T08:45:14.175Z,12.16
2022-10-22T08:50:19.435Z,12.19
2022-10-22T08:55:18.727Z,12.46
2022-10-22T09:00:35.061Z,12.64
2022-10-22T09:05:46.352Z,12.94
2022-10-22T09:10:51.990Z,12.92
2022-10-22T09:16:19.136Z,12.61
2022-10-22T09:21:38.492Z,12.87
2022-10-22T09:26:40.493Z,13.06
2022-10-22T09:31:39.300Z,13.21
2022-10-22T09:36:38.094Z,13.32
2022-10-22T09:41:36.965Z,13.51
2022-10-22T09:46:43.985Z,13.60
2022-10-22T09:51:52.807Z,13.83
2022-10-22T09:57:04.062Z,14.12
2022-10-22T10:02:38.019Z,14.32
2022-10-22T10:07:37.594Z,14.27
2022-10-22T10:12:42.669Z,14.03
2022-10-22T10:17:59.972Z,13.82
2022-10-22T10:23:08.514Z,14.05
2022-10-22T10:28:34.465Z,14.02
2022-10-22T10:33:47.754Z,13.84
2022-10-22T10:38:56.850Z,13.90
2022-10-22T10:44:14.158Z,14.11
2022-10-22T10:49:25.909Z,14.43
2022-10-22T10:54:28.589Z,14.59
2022-10-22T10:59:33.119Z,14.62
2022-10-22T11:04:53.765Z,14.85
2022-10-22T11:10:02.185Z,15.03
2022-10-22T11:15:15.155Z,15.76
2022-10-22T11:20:20.105Z,15.89
2022-10-22T11:25:27.621Z,15.87
2022-10-22T11:30:32.005Z,15.32
2022-10-22T11:35:34.111Z,15.10
2022-10-22T11:40:36.675Z,14.83
2022-10-22T11:45:43.345Z,14.72
2022-10-22T11:50:54.484Z,14.86
2022-10-22T11:55:56.306Z,15.07
2022-10-22T12:01:01.553Z,15.29
2022-10-22T12:06:34.736Z,15.38
2022-10-22T12:11:36.492Z,15.41
2022-10-22T12:16:56.305Z,15.24
2022-10-22T12:22:29.755Z,15.52
2022-10-22T12:27:39.828Z,15.22
2022-10-22T12:32:42.458Z,15.19
2022-10-22T12:37:41.732Z,15.06
2022-10-22T12:42:47.990Z,14.94
2022-10-22T12:47:48.798Z,14.92
2022-10-22T12:52:48.740Z,15.08
2022-10-22T12:57:49.023Z,15.36
2022-10-22T13:02:47.941Z,15.54
2022-10-22T13:07:50.714Z,15.65
2022-10-22T13:12:51.420Z,15.66
2022-10-22T13:17:50.258Z,15.66
2022-10-22T13:23:03.353Z,15.88
2022-10-22T13:28:10.854Z,15.86
2022-10-22T13:33:30.131Z,16.07
2022-10-22T13:38:29.436Z,16.29
2022-10-22T13:43:28.171Z,16.21
2022-10-22T13:48:30.007Z,16.20
2022-10-22T13:53:30.476Z,16.07
2022-10-22T13:58:29.161Z,16.10
2022-10-22T14:03:34.088Z,16.06
2022-10-22T14:08:32.868Z,16.25
2022-10-22T14:13:31.645Z,15.91
2022-10-22T14:18:33.083Z,15.66
2022-10-22T14:23:32.663Z,15.50
2022-10-22T14:28:37.213Z,15.36
2022-10-22T14:33:40.615Z,15.20
2022-10-22T14:38:39.531Z,15.19
2022-10-22T14:43:38.318Z,15.27
2022-10-22T14:48:37.030Z,15.45
2022-10-22T14:53:35.705Z,15.64
2022-10-22T14:58:34.513Z,15.61
2022-10-22T15:03:33.748Z,15.54
2022-10-22T15:08:32.607Z,15.50
2022-10-22T15:13:32.326Z,15.45
2022-10-22T15:18:31.080Z,15.46
2022-10-22T15:23:30.049Z,15.35
2022-10-22T15:28:29.552Z,15.15
2022-10-22T15:33:29.337Z,14.92
2022-10-22T15:43:28.566Z,14.81
2022-10-22T15:48:27.235Z,14.71
2022-10-22T15:53:25.968Z,14.60
2022-10-22T15:58:24.953Z,14.48
2022-10-22T16:03:23.709Z,14.42
2022-10-22T16:08:22.406Z,14.32
2022-10-22T16:13:24.087Z,14.26
2022-10-22T16:18:23.693Z,14.15
2022-10-22T16:23:23.089Z,14.04
2022-10-22T16:28:24.725Z,13.94
2022-10-22T16:33:26.278Z,13.88
2022-10-22T16:38:25.192Z,13.78
2022-10-22T16:43:23.881Z,13.63
2022-10-22T16:48:22.777Z,13.50
2022-10-22T16:53:21.512Z,13.31
2022-10-22T16:58:20.255Z,13.20
2022-10-22T17:03:18.983Z,13.22
2022-10-22T17:08:17.667Z,13.14
2022-10-22T17:13:16.525Z,13.14
2022-10-22T17:18:15.686Z,13.10
2022-10-22T17:23:14.376Z,13.13
2022-10-22T17:28:13.441Z,12.96
2022-10-22T17:33:12.079Z,12.89
2022-10-22T17:38:10.788Z,12.87
2022-10-22T17:43:09.432Z,12.78
2022-10-22T17:48:08.326Z,12.76
2022-10-22T17:53:07.140Z,12.50
2022-10-22T17:58:05.853Z,12.27
2022-10-22T18:03:04.624Z,12.16
2022-10-22T18:08:07.715Z,12.23
2022-10-22T18:13:06.784Z,12.16
2022-10-22T18:18:06.030Z,11.95
2022-10-22T18:23:04.837Z,12.01
2022-10-22T18:28:03.586Z,12.05
2022-10-22T18:33:02.518Z,11.97
2022-10-22T18:38:01.154Z,11.80
2022-10-22T18:42:59.800Z,11.67
2022-10-22T18:48:00.735Z,11.74
2022-10-22T18:52:59.446Z,11.43
2022-10-22T18:57:58.052Z,11.42
2022-10-22T19:02:56.828Z,11.55
2022-10-22T19:07:55.533Z,11.61
2022-10-22T19:12:54.330Z,11.73
2022-10-22T19:17:52.990Z,11.42
2022-10-22T19:22:53.439Z,11.25
2022-10-22T19:27:52.281Z,11.16
2022-10-22T19:32:51.058Z,11.21
2022-10-22T19:37:49.790Z,11.15
2022-10-22T19:42:51.404Z,11.29
2022-10-22T19:47:50.105Z,11.28
2022-10-22T19:52:48.770Z,11.38
2022-10-22T19:57:47.471Z,11.65
2022-10-22T20:02:46.396Z,11.71
2022-10-22T20:07:45.220Z,11.79
2022-10-22T20:12:43.988Z,11.93
2022-10-22T20:17:43.010Z,12.04
2022-10-22T20:22:43.357Z,12.14
2022-10-22T20:27:42.605Z,11.99
2022-10-22T20:32:41.575Z,12.09
2022-10-22T20:37:40.731Z,12.15
2022-10-22T20:42:39.984Z,12.02
2022-10-22T20:47:51.277Z,11.93
2022-10-22T20:52:57.508Z,11.83
2022-10-22T20:57:56.229Z,11.70
2022-10-22T21:02:54.934Z,11.58
2022-10-22T21:07:53.588Z,11.51
2022-10-22T21:12:52.284Z,11.52
2022-10-22T21:17:51.072Z,11.46
2022-10-22T21:22:49.923Z,11.29
2022-10-22T21:27:48.634Z,11.24
2022-10-22T21:32:47.511Z,11.21
2022-10-22T21:37:46.254Z,11.08
2022-10-22T21:42:45.068Z,11.07
2022-10-22T21:47:44.871Z,11.12
2022-10-22T21:52:43.625Z,11.11
2022-10-22T21:57:42.541Z,11.02
2022-10-22T22:02:41.786Z,10.93
2022-10-22T22:07:40.866Z,11.06
2022-10-22T22:12:40.032Z,10.88
2022-10-22T22:17:40.555Z,10.88
2022-10-22T22:22:44.277Z,10.89
2022-10-22T22:27:43.841Z,10.91
2022-10-22T22:32:42.789Z,11.02
2022-10-22T22:37:41.946Z,10.93
2022-10-22T22:42:41.316Z,11.03
2022-10-22T22:47:40.355Z,10.82
2022-10-22T22:52:39.738Z,10.74
2022-10-22T22:57:38.724Z,10.66
2022-10-22T23:02:37.373Z,10.72
2022-10-22T23:07:38.966Z,10.69
2022-10-22T23:12:37.745Z,10.72
2022-10-22T23:17:39.435Z,10.70
2022-10-22T23:22:47.508Z,10.46
2022-10-22T23:27:46.249Z,10.60
2022-10-22T23:32:44.910Z,10.40
2022-10-22T23:37:43.938Z,10.36
2022-10-22T23:42:45.137Z,10.34
2022-10-22T23:47:44.087Z,10.26
2022-10-22T23:52:43.343Z,10.04
2022-10-22T23:57:42.254Z,10.23
